Sunday, October 21, 2018, 7:16 PM EDT
Back to Local

KPSM, Pease Air Force Base / Portsmouth

Location: Portsmouth, NH, United States Lat: 43.083
Local Time: 7:16 PM EDT (23:16 GMT) Lon: -70.817
Time Zone: US/Eastern Elev: 101 ft

Show me the last for .
Show Decoded

2018-10-21 17:56 METAR KPSM 212156Z 30018G25KT 10SM SCT050 04/M08 A2989 RMK AO2A PK WND 31033/34
                 SLP125 T00351085 =
2018-10-21 16:56 METAR KPSM 212056Z 29020G29KT 10SM SCT048 05/M07 A2984 RMK AO2A PK WND 31033/29
                 SLP108 T00461066 52023 =
2018-10-21 15:56 METAR KPSM 211956Z 30014G21KT 10SM BKN047 BKN250 06/M06 A2982 RMK AO2A PK WND
                 31033/44 SLP101 T00561060 =
2018-10-21 14:56 METAR KPSM 211856Z 30020G26KT 10SM BKN048 BKN250 06/M06 A2980 RMK AO2A PK WND
                 30034/13 SLP094 T00611056 =
2018-10-21 13:56 METAR KPSM 211756Z 29021G30KT 10SM SCT050 BKN250 06/M06 A2978 RMK AO2A PK WND
                 29033/43 SLP087 60000 T00611062 10085 20061 53010 =
2018-10-21 12:56 METAR KPSM 211656Z 31021G25KT 10SM SCT047 BKN250 08/M05 A2975 RMK AO2A PK WND
                 31031/34 SLP077 T00841051 =
2018-10-21 11:56 METAR KPSM 211556Z 31021G28KT 10SM FEW047 FEW140 BKN250 08/M04 A2975 RMK AO2A
                 SLP077 T00781040 =
2018-10-21 10:56 METAR KPSM 211456Z 30016G23KT 10SM FEW047 SCT140 BKN200 07/M02 A2975 RMK AO2A
                 SLP077 60000 T00731024 51024 =
2018-10-21 09:56 METAR KPSM 211356Z 30013KT 10SM FEW047 SCT100 BKN130 OVC200 07/M02 A2974 RMK
                 AO2A SLP074 T00711021 =
2018-10-21 08:56 METAR KPSM 211256Z 30009KT 10SM FEW047 SCT070 OVC090 07/M01 A2972 RMK AO2A
                 RAB19E32 SLP067 P0000 T00721010 =
2018-10-21 08:32 METAR KPSM 211232Z 30011KT 10SM SCT047 BKN090 OVC250 07/M01 A2971 RMK AO2A =
2018-10-21 08:19 METAR KPSM 211219Z 29012G17KT 10SM -SHRA FEW047 BKN090 OVC250 07/M01 A2970 RMK
                 AO2A =
2018-10-21 07:56 METAR KPSM 211156Z 29007KT 10SM FEW047 BKN090 OVC250 07/00 A2968 RMK AO2A SLP053
                 T00731002 10077 20057 52029 =
2018-10-21 06:56 METAR KPSM 211056Z 28004KT 10SM FEW050 OVC090 07/02 A2963 RMK AO2A SLP036
                 T00660021 =
2018-10-21 05:56 METAR KPSM 210956Z 34007KT 10SM FEW075 OVC090 08/01 A2961 RMK AO2A SLP029
                 T00760012 =
2018-10-21 04:56 METAR KPSM 210856Z 34005KT 10SM OVC090 07/03 A2959 RMK AO2A SLP022 T00700025
                 53012 =
2018-10-21 03:56 METAR KPSM 210756Z 33006KT 10SM BKN100 OVC130 07/02 A2955 RMK AO2A SLP009
                 T00660023 =
2018-10-21 02:56 METAR KPSM 210656Z 32004KT 10SM BKN095 06/04 A2955 RMK AO2A SLP009 T00570040 =
2018-10-21 01:56 METAR KPSM 210556Z 25003KT 10SM BKN100 06/04 A2956 RMK AO2A SLP012 T00590042
                 10110 20047 53001 =
2018-10-21 00:56 METAR KPSM 210456Z 26003KT 10SM SCT100 05/03 A2955 RMK AO2A SLP009 T00510033
                 401770051 =
2018-10-20 23:56 METAR KPSM 210356Z 00000KT 10SM FEW100 07/05 A2955 RMK AO2A SLP009 T00690047 =
2018-10-20 22:56 METAR KPSM 210256Z 24005KT 10SM FEW100 08/05 A2955 RMK AO2A SLP009 T00820050
                 53006 =
2018-10-20 21:56 METAR KPSM 210156Z 23005KT 10SM FEW100 09/05 A2954 RMK AO2A SLP005 T00870049 =
2018-10-20 20:56 METAR KPSM 210056Z 21004KT 10SM FEW100 10/05 A2953 RMK AO2A SLP002 T01030051 =
2018-10-20 19:56 METAR KPSM 202356Z 23005KT 10SM FEW050 FEW100 11/05 A2954 RMK AO2A SLP005
                 T01110045 10177 20111 53008 =

Support USWX by starting your Amazon purchase here.